Time;durP1;ratioP1;P1;durP2;ratioP2;P2;SDS_P1;SDS_P2;PMS_P1;PMS_P2;Temp;Humidity;BMP_temperature;BMP_pressure;BME280_temperature;BME280_humidity;BME280_pressure;Samples;Min_cycle;Max_cycle;Signal;HPM_P1;HPM_P2
2022/01/22 00:01:02;;;;;;;2.45;1.10;;;;;;;-3.34;76.31;99158.28;4474671;32;20723;-72
2022/01/22 00:03:29;;;;;;;1.60;1.05;;;;;;;-3.36;76.41;99166.00;4484654;31;20482;-72
2022/01/22 00:05:57;;;;;;;0.68;0.25;;;;;;;-3.25;75.63;99153.75;4484801;31;20149;-72
2022/01/22 00:08:24;;;;;;;2.12;1.00;;;;;;;-3.24;75.56;99146.87;4484848;31;20088;-72
2022/01/22 00:10:52;;;;;;;5.43;1.00;;;;;;;-3.18;75.19;99144.16;4484940;32;20116;-72
2022/01/22 00:15:48;;;;;;;0.70;0.47;;;;;;;-3.19;75.22;99173.25;4484642;31;20123;-72
2022/01/22 00:18:16;;;;;;;3.62;1.30;;;;;;;-3.20;75.04;99194.63;4484526;31;20627;-72
2022/01/22 00:20:44;;;;;;;1.45;0.90;;;;;;;-3.16;74.70;99180.00;4484624;31;20470;-72
2022/01/22 00:23:11;;;;;;;2.15;0.88;;;;;;;-3.13;73.94;99169.69;4484471;31;20092;-72
2022/01/22 00:25:38;;;;;;;3.78;1.48;;;;;;;-3.12;74.15;99185.03;4484379;31;20183;-72
2022/01/22 00:28:05;;;;;;;1.83;0.82;;;;;;;-3.16;74.47;99174.88;4484327;31;20084;-72
2022/01/22 00:30:32;;;;;;;1.67;0.82;;;;;;;-3.16;74.90;99180.00;4484580;31;20386;-72
2022/01/22 00:33:01;;;;;;;2.55;1.20;;;;;;;-3.18;75.01;99177.47;4484396;31;20093;-72
2022/01/22 00:35:28;;;;;;;3.85;1.35;;;;;;;-3.17;75.00;99163.78;4486174;31;20123;-72
2022/01/22 00:37:55;;;;;;;2.80;1.42;;;;;;;-3.24;75.41;99159.69;4486310;31;20437;-72
2022/01/22 00:40:23;;;;;;;2.72;1.12;;;;;;;-3.23;75.29;99158.81;4486595;31;20111;-72
2022/01/22 00:42:50;;;;;;;2.25;1.00;;;;;;;-3.26;75.42;99157.19;4486498;31;20097;-72
2022/01/22 00:45:18;;;;;;;2.53;1.12;;;;;;;-3.32;75.72;99152.22;4486233;31;20092;-72
2022/01/22 00:47:47;;;;;;;2.15;1.02;;;;;;;-3.28;75.68;99163.25;4486334;31;20116;-72
2022/01/22 00:50:17;;;;;;;4.53;1.30;;;;;;;-3.31;76.10;99158.19;4486075;31;20123;-72
2022/01/22 00:52:46;;;;;;;2.47;1.35;;;;;;;-3.29;76.10;99159.00;4486301;31;20096;-72
2022/01/22 00:55:14;;;;;;;2.97;0.98;;;;;;;-3.29;76.21;99143.62;4486191;31;20212;-72
2022/01/22 00:57:41;;;;;;;7.82;1.52;;;;;;;-3.19;75.69;99147.63;4485994;31;20084;-72
2022/01/22 01:00:11;;;;;;;3.15;1.08;;;;;;;-3.17;75.98;99145.00;4486254;31;20093;-72
2022/01/22 01:02:39;;;;;;;3.87;1.00;;;;;;;-3.11;75.69;99140.56;4470615;32;20131;-72
2022/01/22 01:05:09;;;;;;;1.25;1.12;;;;;;;-3.08;75.72;99127.66;4470418;32;20450;-72
2022/01/22 01:07:37;;;;;;;1.77;0.60;;;;;;;-3.00;75.47;99131.72;4469225;32;20112;-72
2022/01/22 01:10:10;;;;;;;1.75;0.93;;;;;;;-2.98;75.60;99127.38;4470320;32;20152;-72
2022/01/22 01:12:39;;;;;;;1.98;1.00;;;;;;;-2.97;75.61;99129.09;4470431;32;20107;-72
2022/01/22 01:34:17;;;;;;;1.52;1.00;;;;;;;-2.82;75.21;99059.41;4485932;31;20118;-72
2022/01/22 01:36:47;;;;;;;3.20;0.82;;;;;;;-2.77;75.29;99062.69;4486176;32;20093;-72
2022/01/22 01:39:20;;;;;;;1.55;0.90;;;;;;;-2.71;75.22;99062.50;4486197;31;20115;-72
2022/01/22 01:44:19;;;;;;;1.85;0.60;;;;;;;-2.61;75.27;99060.50;4486171;31;20100;-72
2022/01/22 01:46:55;;;;;;;2.15;0.93;;;;;;;-2.58;75.42;99051.88;4485832;31;20109;-72
2022/01/22 01:49:23;;;;;;;2.65;0.77;;;;;;;-2.56;75.45;99045.81;4486046;31;20073;-71
2022/01/22 01:51:52;;;;;;;1.95;0.80;;;;;;;-2.48;74.96;99040.44;4486119;31;20123;-72
2022/01/22 01:59:41;;;;;;;1.45;0.68;;;;;;;-2.41;74.96;99025.69;4485828;31;20091;-72
2022/01/22 02:02:09;;;;;;;1.60;0.70;;;;;;;-2.37;74.64;99020.41;4486032;31;20134;-72
2022/01/22 02:04:37;;;;;;;2.47;0.50;;;;;;;-2.35;73.97;99005.81;4484545;32;20556;-72
2022/01/22 02:07:04;;;;;;;2.08;0.95;;;;;;;-2.30;73.66;99005.66;4485610;31;20088;-71
2022/01/22 02:09:33;;;;;;;3.65;0.68;;;;;;;-2.32;73.39;98990.31;4485849;32;20137;-71
2022/01/22 02:13:37;;;;;;;1.95;0.80;;;;;;;-2.27;73.02;98989.31;4485950;31;20119;-72
2022/01/22 02:23:35;;;;;;;1.48;0.47;;;;;;;-2.26;72.27;98980.72;4485733;31;20088;-72
2022/01/22 02:26:07;;;;;;;1.62;0.68;;;;;;;-2.21;71.36;98979.69;4485827;31;20119;-72
2022/01/22 02:28:35;;;;;;;7.93;1.02;;;;;;;-2.20;71.07;98980.50;4485860;31;20088;-72
2022/01/22 02:36:31;;;;;;;1.10;0.70;;;;;;;-2.27;71.60;98967.06;4485540;31;20114;-72
2022/01/22 02:39:19;;;;;;;1.87;0.65;;;;;;;-2.34;72.24;98961.28;4485942;31;20367;-71
2022/01/22 02:41:50;;;;;;;5.53;1.23;;;;;;;-2.51;73.51;98948.19;4485598;31;20461;-72
2022/01/22 02:44:32;;;;;;;1.70;0.85;;;;;;;-2.71;74.59;98953.94;4485777;31;20104;-72
2022/01/22 02:47:03;;;;;;;2.05;1.20;;;;;;;-2.77;75.43;98966.97;4485621;31;20144;-72
2022/01/22 02:49:30;;;;;;;4.85;1.40;;;;;;;-2.82;75.93;98972.25;4485669;31;20573;-72
2022/01/22 02:52:03;;;;;;;8.77;2.00;;;;;;;-2.87;76.33;98964.69;4485327;31;20105;-72
2022/01/22 02:54:31;;;;;;;1.65;1.10;;;;;;;-2.97;76.88;98972.72;4485468;32;20127;-72
2022/01/22 02:56:58;;;;;;;9.43;1.45;;;;;;;-2.90;76.82;98974.22;4484603;31;20101;-72
2022/01/22 02:59:26;;;;;;;2.10;1.10;;;;;;;-3.00;77.28;98953.16;4485315;31;20116;-72
2022/01/22 03:01:54;;;;;;;1.85;0.93;;;;;;;-2.95;77.18;98965.81;4485555;31;20104;-72
2022/01/22 03:04:21;;;;;;;2.28;1.02;;;;;;;-2.94;76.92;98957.25;4485334;31;20136;-72
2022/01/22 03:06:49;;;;;;;2.22;0.90;;;;;;;-2.90;76.69;98946.84;4485230;31;20088;-72
2022/01/22 03:09:18;;;;;;;2.92;1.58;;;;;;;-2.88;76.60;98942.53;4485698;31;20450;-72
2022/01/22 03:12:10;;;;;;;2.80;1.12;;;;;;;-2.79;76.21;98931.12;4485137;31;20084;-72
2022/01/22 03:17:30;;;;;;;0.95;0.62;;;;;;;-2.77;76.45;98925.94;4485135;31;20552;-72
2022/01/22 03:28:02;;;;;;;2.17;1.20;;;;;;;-2.57;76.15;98909.94;4425595;32;20176;-72
2022/01/22 03:30:30;;;;;;;1.98;0.98;;;;;;;-2.51;75.94;98915.69;4436088;32;20538;-72
2022/01/22 03:32:57;;;;;;;4.75;1.10;;;;;;;-2.52;75.92;98913.16;4436461;32;20839;-72
2022/01/22 03:35:27;;;;;;;2.10;1.10;;;;;;;-2.49;75.83;98905.38;4436122;32;20183;-72
2022/01/22 03:37:56;;;;;;;3.47;0.90;;;;;;;-2.42;75.31;98904.28;4436494;32;20093;-72
2022/01/22 03:40:31;;;;;;;3.58;0.77;;;;;;;-2.38;75.11;98898.13;4436296;32;20119;-72
2022/01/22 03:42:58;;;;;;;4.00;0.93;;;;;;;-2.30;74.77;98902.16;4436095;32;20126;-72
2022/01/22 03:45:26;;;;;;;1.40;0.77;;;;;;;-2.25;74.84;98900.28;4436203;32;20122;-72
2022/01/22 03:47:53;;;;;;;2.05;1.20;;;;;;;-2.20;74.64;98899.22;4436151;32;20106;-72
2022/01/22 03:50:21;;;;;;;2.08;1.08;;;;;;;-2.24;74.75;98894.25;4435978;32;20105;-72
2022/01/22 03:52:48;;;;;;;2.80;1.10;;;;;;;-2.21;74.93;98894.16;4435965;32;20128;-72
2022/01/22 03:55:47;;;;;;;2.28;1.02;;;;;;;-2.20;75.65;98888.13;4435829;32;20145;-72
2022/01/22 03:58:08;;;;;;;11.65;2.20;;;;;;;-2.15;75.86;98889.66;4435200;32;20105;-72
2022/01/22 04:00:35;;;;;;;3.00;0.90;;;;;;;-2.19;76.86;98884.69;4465290;32;20092;-72
2022/01/22 04:05:32;;;;;;;2.60;1.33;;;;;;;-2.27;80.26;98878.97;4484986;32;20552;-72
2022/01/22 04:10:30;;;;;;;2.50;1.33;;;;;;;-2.39;84.74;98875.94;4484253;32;20152;-71
2022/01/22 04:13:02;;;;;;;1.73;1.20;;;;;;;-2.47;87.36;98869.41;4484998;31;20081;-72
2022/01/22 04:15:33;;;;;;;3.42;2.03;;;;;;;-2.46;88.59;98863.41;4484597;31;20450;-72
2022/01/22 04:26:52;;;;;;;5.07;1.85;;;;;;;-2.75;100.00;98858.34;4466294;32;20458;-72
2022/01/22 04:29:24;;;;;;;2.12;1.40;;;;;;;-2.74;100.00;98859.19;4466563;32;20188;-72
2022/01/22 04:31:52;;;;;;;5.78;1.92;;;;;;;-2.76;100.00;98858.41;4466452;32;20088;-71
2022/01/22 04:34:19;;;;;;;6.87;2.03;;;;;;;-2.80;100.00;98854.25;4466305;32;20345;-72
2022/01/22 04:36:46;;;;;;;3.37;1.55;;;;;;;-2.79;100.00;98845.69;4466256;32;20109;-72
2022/01/22 04:39:14;;;;;;;3.22;1.87;;;;;;;-2.76;100.00;98848.97;4466318;32;20209;-72
2022/01/22 04:41:41;;;;;;;6.32;2.42;;;;;;;-2.71;100.00;98844.56;4465988;32;20171;-71
2022/01/22 04:44:09;;;;;;;3.83;2.25;;;;;;;-2.69;100.00;98839.38;4466396;32;20200;-71
2022/01/22 04:52:30;;;;;;;5.50;2.80;;;;;;;-2.73;100.00;98828.38;4466113;32;20577;-72
2022/01/22 04:55:01;;;;;;;6.28;2.17;;;;;;;-2.71;100.00;98816.34;4466313;32;20744;-71
2022/01/22 04:57:34;;;;;;;6.32;2.28;;;;;;;-2.70;100.00;98828.25;4452798;32;20461;-71
2022/01/22 05:00:08;;;;;;;5.82;2.15;;;;;;;-2.72;100.00;98819.78;4465918;32;20561;-72
2022/01/22 05:02:36;;;;;;;3.95;2.25;;;;;;;-2.65;100.00;98827.28;4478214;32;20179;-72
2022/01/22 05:05:04;;;;;;;5.78;2.83;;;;;;;-2.63;100.00;98825.50;4484114;31;20124;-72
2022/01/22 05:07:31;;;;;;;4.50;2.60;;;;;;;-2.61;100.00;98827.09;4484184;31;20081;-71
2022/01/22 05:10:01;;;;;;;4.62;2.72;;;;;;;-2.65;100.00;98833.22;4484242;31;20122;-72
2022/01/22 05:12:30;;;;;;;6.07;2.55;;;;;;;-2.65;100.00;98825.53;4484146;31;20088;-71
2022/01/22 05:14:57;;;;;;;9.88;2.92;;;;;;;-2.56;100.00;98825.25;4484222;31;20534;-72
2022/01/22 05:17:25;;;;;;;7.47;3.33;;;;;;;-2.53;100.00;98830.25;4483668;31;20092;-72
2022/01/22 05:20:04;;;;;;;4.60;2.70;;;;;;;-2.54;100.00;98825.19;4484533;31;20127;-72
2022/01/22 05:22:52;;;;;;;7.43;2.47;;;;;;;-2.63;100.00;98828.06;4470440;32;20111;-72
2022/01/22 05:25:24;;;;;;;4.43;2.58;;;;;;;-2.64;100.00;98829.78;4470518;32;20537;-72
2022/01/22 05:30:51;;;;;;;3.92;2.53;;;;;;;-2.46;100.00;98824.91;4470750;32;20093;-72
2022/01/22 05:38:52;;;;;;;7.12;3.15;;;;;;;-2.60;100.00;98830.53;4469348;32;20085;-71
2022/01/22 05:41:19;;;;;;;5.25;2.72;;;;;;;-2.60;100.00;98827.97;4470077;32;20534;-71
2022/01/22 05:43:46;;;;;;;6.40;2.78;;;;;;;-2.62;100.00;98829.72;4470148;32;20473;-71
2022/01/22 05:46:14;;;;;;;5.45;2.78;;;;;;;-2.63;100.00;98823.78;4470370;32;20104;-71
2022/01/22 05:48:41;;;;;;;5.95;2.58;;;;;;;-2.59;100.00;98819.37;4470182;32;20225;-71
2022/01/22 05:51:09;;;;;;;6.90;2.97;;;;;;;-2.63;100.00;98825.50;4470168;32;20088;-72
2022/01/22 06:01:22;;;;;;;5.87;2.80;;;;;;;-2.60;100.00;98813.41;4478141;32;20088;-71
2022/01/22 06:03:50;;;;;;;4.45;2.42;;;;;;;-2.51;100.00;98823.34;4485916;31;20165;-71
2022/01/22 06:06:17;;;;;;;5.03;2.58;;;;;;;-2.39;100.00;98822.06;4486019;31;20109;-71
2022/01/22 06:08:49;;;;;;;6.53;2.42;;;;;;;-2.27;100.00;98823.38;4485949;31;20165;-72
2022/01/22 06:11:22;;;;;;;4.55;2.78;;;;;;;-2.30;100.00;98835.47;4485720;31;20097;-71
2022/01/22 06:13:51;;;;;;;7.18;2.90;;;;;;;-2.25;100.00;98825.88;4485792;31;20088;-71
2022/01/22 06:16:21;;;;;;;5.75;2.15;;;;;;;-2.29;100.00;98832.00;4485931;31;20111;-71
2022/01/22 06:18:50;;;;;;;3.80;2.20;;;;;;;-2.22;100.00;98843.72;4485711;31;20474;-71
2022/01/22 06:21:18;;;;;;;3.62;1.77;;;;;;;-2.15;100.00;98840.88;4485956;31;20462;-71
2022/01/22 06:23:46;;;;;;;3.17;1.55;;;;;;;-2.11;100.00;98836.47;4485749;31;20477;-71
2022/01/22 06:26:14;;;;;;;3.55;1.37;;;;;;;-2.17;100.00;98842.66;4486055;31;20501;-71
2022/01/22 06:28:42;;;;;;;2.00;1.00;;;;;;;-2.16;100.00;98846.91;4485579;31;20168;-71
2022/01/22 06:31:12;;;;;;;2.03;1.05;;;;;;;-2.14;100.00;98842.53;4485571;31;20441;-71
2022/01/22 06:33:39;;;;;;;0.95;0.77;;;;;;;-2.15;100.00;98848.59;4485265;31;20104;-71
2022/01/22 06:36:07;;;;;;;1.95;0.93;;;;;;;-2.10;100.00;98850.97;4485536;31;20085;-71
2022/01/22 06:38:34;;;;;;;2.08;1.12;;;;;;;-2.17;100.00;98846.97;4485435;31;20092;-71
2022/01/22 06:43:53;;;;;;;2.87;1.33;;;;;;;-2.14;100.00;98872.50;4485709;31;20469;-71
2022/01/22 06:46:21;;;;;;;1.27;0.73;;;;;;;-2.05;100.00;98873.91;4485811;31;20101;-71
2022/01/22 06:48:48;;;;;;;3.65;1.20;;;;;;;-2.11;100.00;98869.84;4485601;31;20116;-71
2022/01/22 06:51:17;;;;;;;1.40;0.70;;;;;;;-2.07;100.00;98878.28;4485646;31;20092;-71
2022/01/22 06:53:44;;;;;;;2.10;1.30;;;;;;;-1.98;100.00;98873.63;4485548;31;20105;-71
2022/01/22 06:56:18;;;;;;;1.12;0.90;;;;;;;-2.09;100.00;98868.06;4485589;31;20138;-71
2022/01/22 06:58:47;;;;;;;2.70;1.37;;;;;;;-2.07;100.00;98873.97;4485446;31;20468;-71
2022/01/22 07:01:15;;;;;;;2.30;1.17;;;;;;;-1.98;100.00;98876.19;4485350;31;20552;-71
2022/01/22 07:03:43;;;;;;;1.95;1.45;;;;;;;-1.93;100.00;98875.22;4485357;31;20084;-71
2022/01/22 07:06:12;;;;;;;1.37;1.15;;;;;;;-1.99;100.00;98866.00;4485710;31;20096;-71
2022/01/22 07:08:39;;;;;;;2.85;1.70;;;;;;;-2.00;100.00;98865.16;4485256;31;20465;-71
2022/01/22 07:11:07;;;;;;;1.23;1.10;;;;;;;-1.84;100.00;98870.56;4485598;31;20092;-71
2022/01/22 07:13:37;;;;;;;2.53;1.50;;;;;;;-1.90;100.00;98855.38;4485381;31;20111;-71
2022/01/22 07:16:05;;;;;;;4.93;2.25;;;;;;;-1.91;100.00;98843.44;4485280;31;20092;-71
2022/01/22 07:18:33;;;;;;;5.65;2.40;;;;;;;-1.89;100.00;98856.22;4485341;31;20738;-71
2022/01/22 07:21:14;;;;;;;5.55;2.17;;;;;;;-1.97;100.00;98872.75;4485484;31;20171;-71
2022/01/22 07:24:22;;;;;;;6.10;2.53;;;;;;;-1.91;100.00;98881.13;4484059;32;20104;-71
2022/01/22 07:26:30;;;;;;;6.90;2.47;;;;;;;-2.01;100.00;98888.31;4485269;31;20115;-71
2022/01/22 07:28:58;;;;;;;5.80;2.42;;;;;;;-1.92;100.00;98897.41;4485290;31;20089;-71
2022/01/22 07:31:26;;;;;;;6.70;2.22;;;;;;;-1.98;100.00;98896.75;4485570;31;20095;-71
2022/01/22 07:33:54;;;;;;;6.15;2.95;;;;;;;-2.00;100.00;98903.66;4485096;31;20180;-71
2022/01/22 07:36:21;;;;;;;4.07;2.35;;;;;;;-1.98;100.00;98906.19;4485116;31;20163;-71
2022/01/22 07:38:48;;;;;;;6.40;3.10;;;;;;;-1.99;100.00;98902.75;4485163;32;20545;-71
2022/01/22 07:41:16;;;;;;;3.87;2.28;;;;;;;-1.93;100.00;98909.41;4485378;31;20147;-71
2022/01/22 07:43:44;;;;;;;7.05;2.92;;;;;;;-1.72;100.00;98904.41;4484958;31;20605;-71
2022/01/22 07:46:14;;;;;;;6.45;3.03;;;;;;;-1.61;100.00;98915.91;4485446;31;20445;-71
2022/01/22 07:48:46;;;;;;;4.50;2.53;;;;;;;-1.58;100.00;98904.72;4484992;31;20100;-71
2022/01/22 07:51:16;;;;;;;4.90;2.30;;;;;;;-1.43;100.00;98900.72;4485156;31;20092;-71
2022/01/22 07:53:44;;;;;;;5.62;2.85;;;;;;;-1.41;100.00;98898.09;4484815;31;20446;-71
2022/01/22 07:56:13;;;;;;;4.45;2.65;;;;;;;-1.38;100.00;98890.28;4484993;31;20555;-71
2022/01/22 07:58:40;;;;;;;7.87;3.65;;;;;;;-1.39;100.00;98897.16;4484905;32;20092;-71
2022/01/22 08:01:08;;;;;;;8.80;3.33;;;;;;;-1.47;100.00;98878.59;4485198;32;20160;-71
2022/01/22 08:03:36;;;;;;;6.87;2.78;;;;;;;-1.51;100.00;98871.94;4484734;31;20100;-71
2022/01/22 08:06:24;;;;;;;5.57;2.65;;;;;;;-1.40;100.00;98885.19;4485207;32;20101;-71
2022/01/22 08:08:54;;;;;;;5.15;2.97;;;;;;;-1.31;100.00;98878.88;4484909;31;20151;-71
2022/01/22 08:11:25;;;;;;;5.37;3.00;;;;;;;-1.28;100.00;98878.75;4485154;31;20131;-71
2022/01/22 08:13:52;;;;;;;5.28;2.95;;;;;;;-1.28;100.00;98876.16;4484933;31;20401;-71
2022/01/22 08:16:19;;;;;;;6.32;3.35;;;;;;;-1.34;100.00;98874.66;4484716;31;20106;-71
2022/01/22 08:18:47;;;;;;;7.32;3.17;;;;;;;-1.18;100.00;98881.78;4484885;31;20096;-71
2022/01/22 08:21:14;;;;;;;7.00;3.20;;;;;;;-1.06;100.00;98883.84;4484860;31;20167;-71
2022/01/22 08:23:54;;;;;;;6.10;3.00;;;;;;;-1.15;100.00;98882.50;4484532;31;20089;-71
2022/01/22 08:26:28;;;;;;;7.40;3.72;;;;;;;-1.09;100.00;98881.41;4484636;31;20093;-71
2022/01/22 08:29:01;;;;;;;5.55;3.17;;;;;;;-1.06;100.00;98886.41;4484424;31;20140;-71
2022/01/22 08:36:48;;;;;;;5.18;3.35;;;;;;;-1.55;100.00;98893.50;4484715;31;20101;-71
2022/01/22 08:39:17;;;;;;;3.60;2.70;;;;;;;-1.56;100.00;98909.78;4484690;31;20143;-71
2022/01/22 08:41:47;;;;;;;5.80;3.22;;;;;;;-1.50;100.00;98919.81;4484399;31;20130;-71
2022/01/22 08:44:14;;;;;;;5.55;3.30;;;;;;;-1.39;100.00;98924.56;4484360;31;20115;-71
2022/01/22 08:46:41;;;;;;;6.97;4.22;;;;;;;-1.15;100.00;98938.19;4484274;31;20546;-71
2022/01/22 08:49:09;;;;;;;4.97;3.08;;;;;;;-1.00;100.00;98942.78;4484308;31;20464;-71
2022/01/22 08:51:38;;;;;;;8.20;4.60;;;;;;;-0.91;100.00;98939.84;4484446;31;20176;-71
2022/01/22 08:54:08;;;;;;;4.10;2.15;;;;;;;-0.65;100.00;98942.25;4484204;31;20114;-71
2022/01/22 08:56:37;;;;;;;2.42;1.87;;;;;;;-0.62;100.00;98945.53;4485956;31;20088;-71
2022/01/22 08:59:05;;;;;;;4.50;2.72;;;;;;;-0.80;100.00;98946.25;4486251;31;20145;-71
2022/01/22 09:01:33;;;;;;;10.02;3.45;;;;;;;-0.87;100.00;98960.28;4486037;31;20084;-71
2022/01/22 09:04:00;;;;;;;7.45;3.22;;;;;;;-0.80;100.00;98957.41;4486445;31;20603;-71
2022/01/22 09:06:28;;;;;;;7.10;3.70;;;;;;;-0.69;100.00;98969.00;4486374;31;20497;-71
2022/01/22 09:09:08;;;;;;;4.40;2.95;;;;;;;-0.71;100.00;98966.50;4485278;32;20488;-71
2022/01/22 09:11:38;;;;;;;5.82;3.60;;;;;;;-0.50;99.98;98969.94;4486361;31;20079;-71
2022/01/22 09:14:10;;;;;;;5.20;3.22;;;;;;;-0.59;99.99;98976.31;4486399;31;20446;-71
2022/01/22 09:16:38;;;;;;;5.65;3.50;;;;;;;-0.51;100.00;98977.72;4486360;31;20122;-71
2022/01/22 09:19:09;;;;;;;6.25;3.67;;;;;;;-0.56;99.56;98981.31;4486309;31;20101;-71
2022/01/22 09:21:43;;;;;;;3.55;2.12;;;;;;;-0.36;98.69;98985.66;4485952;31;20096;-71
2022/01/22 09:24:11;;;;;;;5.18;3.03;;;;;;;-0.21;97.18;98996.22;4485923;31;20096;-71
2022/01/22 09:26:39;;;;;;;6.43;3.30;;;;;;;-0.15;96.45;98992.53;4484918;32;20153;-71
2022/01/22 09:29:06;;;;;;;6.70;3.67;;;;;;;0.01;95.95;99005.63;4486197;31;20156;-72
2022/01/22 09:31:34;;;;;;;5.50;2.90;;;;;;;0.07;95.06;99011.34;4486060;31;20111;-72
2022/01/22 09:34:03;;;;;;;6.68;2.92;;;;;;;0.12;94.03;99019.72;4486053;31;20096;-71
2022/01/22 09:36:34;;;;;;;7.25;3.10;;;;;;;0.28;93.70;99019.06;4485855;32;20145;-71
2022/01/22 09:39:05;;;;;;;6.12;3.35;;;;;;;0.24;92.46;99018.34;4486288;31;20093;-71
2022/01/22 09:41:33;;;;;;;5.90;3.45;;;;;;;0.44;91.14;99026.94;4486022;31;20167;-72
2022/01/22 09:44:20;;;;;;;6.43;2.85;;;;;;;0.35;90.60;99031.63;4486223;31;20139;-72
2022/01/22 09:46:48;;;;;;;5.62;2.92;;;;;;;0.41;90.47;99038.25;4485923;31;20097;-72
2022/01/22 09:49:16;;;;;;;4.40;2.78;;;;;;;0.55;89.43;99026.50;4486041;31;20160;-71
2022/01/22 09:51:45;;;;;;;3.92;2.60;;;;;;;0.15;89.47;99029.03;4485846;31;20461;-72
2022/01/22 09:54:13;;;;;;;5.68;2.95;;;;;;;0.27;89.61;99028.53;4485948;31;20156;-72
2022/01/22 09:56:45;;;;;;;3.92;2.97;;;;;;;0.09;89.79;99035.31;4485731;31;20442;-71
2022/01/22 09:59:13;;;;;;;5.90;3.12;;;;;;;-0.07;90.33;99039.41;4485892;31;20099;-72
2022/01/22 10:01:42;;;;;;;4.90;2.53;;;;;;;-0.29;91.01;99032.56;4485768;31;20159;-71
2022/01/22 10:04:10;;;;;;;5.45;2.60;;;;;;;-0.17;91.22;99033.78;4485942;31;20237;-71
2022/01/22 10:06:47;;;;;;;4.97;2.92;;;;;;;-0.27;90.28;99040.22;4484940;31;20534;-71
2022/01/22 10:09:27;;;;;;;4.93;2.53;;;;;;;-0.12;89.28;99031.03;4486039;31;20206;-71
2022/01/22 10:12:20;;;;;;;6.30;3.35;;;;;;;-0.07;89.23;99034.28;4486122;31;20097;-71
2022/01/22 10:15:08;;;;;;;3.40;2.45;;;;;;;-0.10;87.87;99032.66;4485594;31;20585;-72
2022/01/22 10:17:38;;;;;;;3.30;1.62;;;;;;;0.05;87.30;99050.97;4485838;31;20566;-71
2022/01/22 10:20:27;;;;;;;5.10;2.00;;;;;;;-0.03;86.19;99038.38;4485615;31;20088;-71
2022/01/22 10:22:58;;;;;;;2.62;1.98;;;;;;;-0.31;86.98;99047.25;4485549;31;20386;-71
2022/01/22 10:25:34;;;;;;;4.85;2.35;;;;;;;-0.23;85.80;99045.22;4485502;31;20100;-71
2022/01/22 10:28:04;;;;;;;3.60;1.83;;;;;;;0.01;86.27;99044.25;4485555;31;20101;-72
2022/01/22 10:30:41;;;;;;;7.25;2.92;;;;;;;0.12;84.55;99048.06;4485509;31;20459;-71
2022/01/22 10:35:49;;;;;;;6.60;2.28;;;;;;;0.24;83.05;99061.31;4485520;31;20558;-71
2022/01/22 10:38:21;;;;;;;3.90;2.30;;;;;;;0.24;82.76;99058.75;4485623;31;20101;-72
2022/01/22 10:40:56;;;;;;;9.77;2.97;;;;;;;0.21;81.29;99064.03;4485550;31;20508;-72
2022/01/22 10:43:31;;;;;;;;;;;;;;;0.25;81.88;99075.88;4485914;31;20496;-72
2022/01/22 10:49:18;;;;;;;5.65;2.45;;;;;;;0.30;79.69;99071.34;4467279;32;20109;-72
2022/01/22 10:51:53;;;;;;;4.12;2.28;;;;;;;0.51;79.68;99072.19;4467046;32;20101;-72
2022/01/22 10:54:26;;;;;;;5.43;2.33;;;;;;;0.61;79.22;99077.78;4466977;32;20908;-72
2022/01/22 10:56:54;;;;;;;5.70;2.17;;;;;;;0.60;79.93;99082.09;4467199;32;20136;-72
2022/01/22 10:59:22;;;;;;;4.80;2.12;;;;;;;0.57;77.30;99081.41;4467058;32;20085;-72
2022/01/22 11:01:52;;;;;;;2.37;1.50;;;;;;;0.55;78.02;99078.06;4456157;32;20113;-72
2022/01/22 11:04:40;;;;;;;2.30;1.65;;;;;;;0.40;74.64;99090.69;4451768;32;20153;-72
2022/01/22 11:07:10;;;;;;;1.25;1.05;;;;;;;0.46;75.65;99093.00;4451902;32;20231;-71
2022/01/22 11:09:50;;;;;;;3.67;1.52;;;;;;;0.34;73.01;99085.78;4451744;32;20182;-72
2022/01/22 11:12:17;;;;;;;2.17;0.95;;;;;;;0.43;74.40;99087.97;4451468;32;20120;-71
2022/01/22 11:14:45;;;;;;;2.65;1.42;;;;;;;0.50;72.71;99094.56;4451591;32;20280;-71
2022/01/22 11:17:13;;;;;;;1.87;1.33;;;;;;;0.19;71.86;99102.72;4451226;32;20140;-72
2022/01/22 11:19:44;;;;;;;2.62;1.60;;;;;;;0.28;71.53;99089.47;4451142;32;20104;-71
2022/01/22 11:22:13;;;;;;;2.47;1.25;;;;;;;0.41;72.81;99097.53;4465984;32;20143;-71
2022/01/22 11:24:43;;;;;;;5.53;1.45;;;;;;;0.43;71.90;99111.19;4467094;32;20105;-71
2022/01/22 11:27:12;;;;;;;4.60;1.75;;;;;;;0.44;70.37;99106.84;4469193;32;20097;-71
2022/01/22 11:29:54;;;;;;;3.87;1.70;;;;;;;0.36;69.00;99120.06;4469679;32;20127;-71
2022/01/22 11:32:39;;;;;;;2.12;1.25;;;;;;;0.57;69.48;99123.47;4469823;32;20081;-71
2022/01/22 11:35:07;;;;;;;2.37;1.40;;;;;;;0.46;68.07;99123.94;4468254;32;20164;-71
2022/01/22 11:37:38;;;;;;;2.95;1.17;;;;;;;0.39;68.40;99119.94;4468163;32;20100;-72
2022/01/22 11:40:09;;;;;;;3.67;1.17;;;;;;;0.52;68.33;99113.34;4469424;32;20097;-72
2022/01/22 11:43:09;;;;;;;2.67;1.40;;;;;;;0.83;67.85;99119.78;4468063;32;20100;-72
2022/01/22 11:45:46;;;;;;;2.05;0.90;;;;;;;1.12;66.56;99122.81;4469338;32;20130;-72
2022/01/22 11:48:22;;;;;;;1.45;1.12;;;;;;;1.05;66.40;99124.00;4469270;32;20081;-71
2022/01/22 11:50:54;;;;;;;2.35;1.55;;;;;;;0.75;67.45;99111.53;4468242;32;20092;-72
2022/01/22 11:53:33;;;;;;;2.15;1.33;;;;;;;0.57;66.12;99112.34;4469236;32;20092;-71
2022/01/22 11:56:09;;;;;;;2.67;1.05;;;;;;;0.48;65.55;99116.97;4469441;32;20076;-72
2022/01/22 11:58:56;;;;;;;3.33;1.60;;;;;;;0.69;66.96;99122.13;4469153;32;20084;-71
2022/01/22 12:01:52;;;;;;;2.75;1.20;;;;;;;0.88;65.69;99119.59;4477175;32;20092;-72
2022/01/22 12:04:21;;;;;;;1.45;0.77;;;;;;;1.15;64.54;99133.00;4484800;32;20582;-71
2022/01/22 12:07:03;;;;;;;2.40;1.00;;;;;;;0.97;64.11;99120.91;4483377;32;20167;-71
2022/01/22 12:10:05;;;;;;;5.82;1.20;;;;;;;0.83;64.21;99155.03;4485135;32;20184;-71
2022/01/22 12:15:34;;;;;;;2.12;1.27;;;;;;;0.93;61.33;99133.09;4484820;31;20152;-72
2022/01/22 12:18:04;;;;;;;2.40;1.10;;;;;;;0.98;62.54;99138.88;4484630;31;20103;-72
2022/01/22 12:23:09;;;;;;;2.33;1.25;;;;;;;0.81;64.02;99141.38;4484495;31;20418;-71
2022/01/22 12:25:39;;;;;;;3.80;1.70;;;;;;;0.76;64.45;99131.28;4484538;31;20144;-72
2022/01/22 12:28:14;;;;;;;1.58;1.00;;;;;;;0.76;63.96;99122.69;4484460;31;20117;-71
2022/01/22 12:30:44;;;;;;;3.17;2.20;;;;;;;0.83;65.87;99121.50;4483810;31;20454;-71
2022/01/22 12:33:33;;;;;;;4.80;2.20;;;;;;;0.92;65.09;99138.34;4484436;31;20693;-71
2022/01/22 12:36:04;;;;;;;2.53;1.40;;;;;;;0.81;65.04;99134.47;4484552;31;20188;-71
2022/01/22 12:44:19;;;;;;;2.15;1.30;;;;;;;0.81;62.99;99113.84;4484411;32;20111;-72
2022/01/22 12:47:07;;;;;;;2.42;1.37;;;;;;;0.71;62.73;99130.63;4484465;31;20096;-71
2022/01/22 12:49:36;;;;;;;1.80;0.90;;;;;;;0.65;63.09;99121.41;4484359;31;20398;-71
2022/01/22 12:52:10;;;;;;;2.08;1.15;;;;;;;0.75;62.31;99131.34;4484446;31;20093;-72
2022/01/22 12:54:43;;;;;;;1.67;1.08;;;;;;;0.80;61.39;99124.22;4483897;31;20459;-72
2022/01/22 12:57:20;;;;;;;3.00;1.00;;;;;;;0.85;61.46;99127.47;4484189;31;20096;-72
2022/01/22 13:00:09;;;;;;;2.97;1.20;;;;;;;0.65;59.07;99125.72;4483859;31;20480;-71
2022/01/22 13:02:37;;;;;;;1.33;0.95;;;;;;;0.59;59.55;99129.41;4468638;32;20104;-71
2022/01/22 13:05:06;;;;;;;2.37;1.10;;;;;;;0.65;59.88;99136.03;4468589;32;20691;-72
2022/01/22 13:07:43;;;;;;;2.95;1.00;;;;;;;0.58;58.00;99135.47;4468571;32;20561;-71
2022/01/22 13:10:13;;;;;;;1.05;0.88;;;;;;;0.61;58.44;99124.19;4468557;32;20097;-71
2022/01/22 13:12:44;;;;;;;2.35;0.82;;;;;;;0.63;58.87;99130.13;4468021;32;20764;-71
2022/01/22 13:15:15;;;;;;;1.10;0.90;;;;;;;0.57;58.74;99133.78;4468248;32;20085;-71
2022/01/22 13:17:51;;;;;;;3.12;1.10;;;;;;;0.62;58.98;99167.09;4468090;32;20108;-71
2022/01/22 13:20:20;;;;;;;1.77;0.93;;;;;;;0.63;57.80;99153.31;4470624;32;20108;-71
2022/01/22 13:22:47;;;;;;;5.35;1.30;;;;;;;0.52;57.66;99153.78;4483644;31;20115;-71
2022/01/22 13:25:15;;;;;;;1.80;1.05;;;;;;;0.45;56.40;99175.53;4483808;31;20096;-71
2022/01/22 13:27:43;;;;;;;1.48;1.02;;;;;;;0.35;57.45;99162.22;4483721;32;20108;-71
2022/01/22 13:30:12;;;;;;;2.05;1.00;;;;;;;0.39;56.72;99163.75;4482277;32;20100;-71
2022/01/22 13:40:59;;;;;;;1.92;1.30;;;;;;;0.40;59.96;99172.34;4483787;31;20115;-71
2022/01/22 13:49:03;;;;;;;3.50;1.50;;;;;;;0.38;62.76;99200.75;4485785;31;20096;-71
2022/01/22 13:51:32;;;;;;;2.22;1.70;;;;;;;0.39;63.94;99204.97;4485988;32;20080;-71
2022/01/22 13:54:01;;;;;;;8.35;4.05;;;;;;;0.51;64.74;99213.97;4485661;31;20148;-71
2022/01/22 13:56:52;;;;;;;5.07;3.33;;;;;;;0.46;65.40;99216.72;4485619;31;20118;-71
2022/01/22 13:59:28;;;;;;;4.15;2.45;;;;;;;0.44;64.62;99231.41;4485558;31;20096;-71
2022/01/22 14:02:15;;;;;;;4.90;2.12;;;;;;;0.43;64.34;99234.88;4486008;31;20499;-71